createdAt,value
2022-11-05T00:02:23.852Z,95563.97
2022-11-05T00:05:09.027Z,95561.91
2022-11-05T00:07:58.474Z,95564.50
2022-11-05T00:10:28.622Z,95566.34
2022-11-05T00:13:16.134Z,95564.00
2022-11-05T00:16:01.317Z,95567.66
2022-11-05T00:18:30.825Z,95574.16
2022-11-05T00:20:58.780Z,95574.97
2022-11-05T00:23:43.748Z,95576.03
2022-11-05T00:26:13.097Z,95578.13
2022-11-05T00:28:43.801Z,95579.69
2022-11-05T00:31:13.677Z,95581.28
2022-11-05T00:33:44.098Z,95592.03
2022-11-05T00:36:12.300Z,95595.44
2022-11-05T00:38:40.041Z,95588.63
2022-11-05T00:41:07.866Z,95600.41
2022-11-05T00:43:53.274Z,95595.69
2022-11-05T00:46:21.021Z,95599.63
2022-11-05T00:49:07.550Z,95589.66
2022-11-05T00:51:35.323Z,95605.91
2022-11-05T00:54:03.174Z,95590.97
2022-11-05T00:56:30.936Z,95604.84
2022-11-05T00:58:58.847Z,95596.19
2022-11-05T01:01:26.691Z,95576.50
2022-11-05T01:03:55.950Z,95611.66
2022-11-05T01:06:23.798Z,95599.34
2022-11-05T01:08:51.615Z,95590.16
2022-11-05T01:11:33.971Z,95599.88
2022-11-05T01:14:02.651Z,95602.69
2022-11-05T01:16:30.790Z,95608.44
2022-11-05T01:19:00.666Z,95612.13
2022-11-05T01:21:32.423Z,95589.78
2022-11-05T01:24:00.591Z,95594.78
2022-11-05T01:26:28.538Z,95622.31
2022-11-05T01:28:58.024Z,95624.16
2022-11-05T01:31:26.030Z,95609.47
2022-11-05T01:33:53.857Z,95623.66
2022-11-05T01:36:23.296Z,95610.50
2022-11-05T01:38:51.164Z,95617.34
2022-11-05T01:41:19.229Z,95627.53
2022-11-05T01:43:49.009Z,95607.38
2022-11-05T01:46:21.090Z,95616.78
2022-11-05T01:48:55.202Z,95610.69
2022-11-05T01:51:28.394Z,95630.34
2022-11-05T01:54:01.475Z,95621.69
2022-11-05T01:56:34.727Z,95609.66
2022-11-05T01:59:07.548Z,95637.69
2022-11-05T02:01:35.868Z,95620.63
2022-11-05T02:04:09.752Z,95632.91
2022-11-05T02:06:46.015Z,95637.69
2022-11-05T02:09:19.934Z,95634.47
2022-11-05T02:11:48.110Z,95638.41
2022-11-05T02:14:15.853Z,95625.28
2022-11-05T02:16:49.971Z,95616.09
2022-11-05T02:19:46.269Z,95608.22
2022-11-05T02:22:45.802Z,95592.69
2022-11-05T02:25:36.129Z,95623.88
2022-11-05T02:28:25.087Z,95625.72
2022-11-05T02:30:59.185Z,95624.16
2022-11-05T02:33:36.342Z,95605.69
2022-11-05T02:36:20.535Z,95630.31
2022-11-05T02:38:59.770Z,95651.28
2022-11-05T02:41:35.198Z,95623.16
2022-11-05T02:44:15.632Z,95653.03
2022-11-05T02:46:51.698Z,95649.94
2022-11-05T02:49:33.480Z,95619.44
2022-11-05T02:52:07.480Z,95630.22
2022-11-05T02:54:39.472Z,95642.63
2022-11-05T02:57:08.013Z,95637.34
2022-11-05T02:59:35.822Z,95644.72
2022-11-05T03:02:06.407Z,95653.81
2022-11-05T03:04:34.764Z,95659.25
2022-11-05T03:07:16.787Z,95653.00
2022-11-05T03:10:31.913Z,95668.19
2022-11-05T03:13:09.435Z,95667.63
2022-11-05T03:15:49.285Z,95676.59
2022-11-05T03:18:26.513Z,95673.38
2022-11-05T03:20:59.979Z,95681.13
2022-11-05T03:23:32.195Z,95655.41
2022-11-05T03:26:06.523Z,95677.16
2022-11-05T03:28:39.104Z,95692.50
2022-11-05T03:31:09.003Z,95694.88
2022-11-05T03:33:40.461Z,95702.75
2022-11-05T03:36:13.990Z,95713.50
2022-11-05T03:38:45.559Z,95702.53
2022-11-05T03:41:16.797Z,95704.16
2022-11-05T03:43:50.370Z,95723.09
2022-11-05T03:46:22.602Z,95724.47
2022-11-05T03:48:55.570Z,95728.38
2022-11-05T03:51:33.478Z,95747.59
2022-11-05T03:54:03.631Z,95748.13
2022-11-05T03:56:37.414Z,95752.59
2022-11-05T03:59:07.616Z,95724.97
2022-11-05T04:01:37.921Z,95752.81
2022-11-05T04:04:08.367Z,95751.03
2022-11-05T04:06:53.980Z,95748.34
2022-11-05T04:09:39.614Z,95765.66
2022-11-05T04:12:24.856Z,95756.75
2022-11-05T04:14:52.577Z,95747.41
2022-11-05T04:17:19.417Z,95752.13
2022-11-05T04:20:06.039Z,95746.31
2022-11-05T04:22:52.734Z,95749.69
2022-11-05T04:25:22.094Z,95759.94
2022-11-05T04:27:50.332Z,95763.38
2022-11-05T04:30:19.304Z,95756.56
2022-11-05T04:33:01.789Z,95756.56
2022-11-05T04:35:33.163Z,95762.66
2022-11-05T04:38:01.010Z,95754.03
2022-11-05T04:40:29.141Z,95763.19
2022-11-05T04:42:57.415Z,95770.47
2022-11-05T04:45:26.129Z,95754.69
2022-11-05T04:47:54.000Z,95767.03
2022-11-05T04:50:22.473Z,95767.31
2022-11-05T04:52:51.739Z,95760.22
2022-11-05T04:55:21.241Z,95763.91
2022-11-05T04:57:50.437Z,95771.28
2022-11-05T05:00:19.621Z,95763.72
2022-11-05T05:02:47.726Z,95779.25
2022-11-05T05:05:16.130Z,95769.47
2022-11-05T05:07:44.149Z,95791.00
2022-11-05T05:10:13.681Z,95785.47
2022-11-05T05:12:41.586Z,95777.28
2022-11-05T05:15:09.712Z,95777.03
2022-11-05T05:17:37.584Z,95772.84
2022-11-05T05:20:23.330Z,95779.44
2022-11-05T05:22:54.642Z,95787.28
2022-11-05T05:25:24.217Z,95791.03
2022-11-05T05:27:52.147Z,95789.97
2022-11-05T05:30:20.095Z,95789.44
2022-11-05T05:32:48.278Z,95770.53
2022-11-05T05:35:16.201Z,95793.91
2022-11-05T05:37:44.309Z,95786.28
2022-11-05T05:40:12.789Z,95795.75
2022-11-05T05:42:43.575Z,95793.59
2022-11-05T05:45:13.375Z,95810.47
2022-11-05T05:47:41.151Z,95811.75
2022-11-05T05:50:09.338Z,95812.56
2022-11-05T05:52:37.297Z,95815.97
2022-11-05T05:55:05.581Z,95818.59
2022-11-05T05:57:33.383Z,95809.13
2022-11-05T06:00:02.629Z,95805.97
2022-11-05T06:02:39.541Z,95812.00
2022-11-05T06:05:08.021Z,95806.78
2022-11-05T06:07:37.451Z,95813.59
2022-11-05T06:10:07.287Z,95825.69
2022-11-05T06:12:35.094Z,95836.19
2022-11-05T06:15:04.953Z,95811.50
2022-11-05T06:17:34.051Z,95835.94
2022-11-05T06:20:01.865Z,95839.09
2022-11-05T06:22:30.220Z,95828.56
2022-11-05T06:24:58.128Z,95838.53
2022-11-05T06:27:25.941Z,95842.78
2022-11-05T06:29:53.968Z,95851.16
2022-11-05T06:32:23.152Z,95856.16
2022-11-05T06:34:50.968Z,95849.59
2022-11-05T06:37:18.753Z,95839.34
2022-11-05T06:39:46.539Z,95868.22
2022-11-05T06:42:18.957Z,95863.56
2022-11-05T06:44:47.618Z,95850.16
2022-11-05T06:47:15.397Z,95881.44
2022-11-05T06:49:44.486Z,95870.41
2022-11-05T06:52:12.688Z,95879.31
2022-11-05T06:54:40.805Z,95883.28
2022-11-05T06:57:09.821Z,95884.31
2022-11-05T06:59:37.697Z,95900.59
2022-11-05T07:02:05.872Z,95891.47
2022-11-05T07:04:34.281Z,95895.63
2022-11-05T07:07:03.406Z,95905.09
2022-11-05T07:09:31.145Z,95903.75
2022-11-05T07:11:58.853Z,95898.50
2022-11-05T07:14:26.534Z,95913.47
2022-11-05T07:16:54.198Z,95896.94
2022-11-05T07:19:22.152Z,95926.63
2022-11-05T07:21:50.868Z,95910.28
2022-11-05T07:24:19.980Z,95937.97
2022-11-05T07:26:50.042Z,95926.09
2022-11-05T07:29:17.810Z,95944.78
2022-11-05T07:31:46.914Z,95942.16
2022-11-05T07:34:14.638Z,95935.34
2022-11-05T07:36:42.393Z,95938.75
2022-11-05T07:39:10.122Z,95945.59
2022-11-05T07:41:39.264Z,95950.31
2022-11-05T07:44:07.226Z,95956.63
2022-11-05T07:46:35.162Z,95950.34
2022-11-05T07:49:03.005Z,95958.50
2022-11-05T07:51:30.707Z,95958.78
2022-11-05T07:53:58.425Z,95935.38
2022-11-05T07:56:26.156Z,95931.94
2022-11-05T07:58:55.265Z,95959.03
2022-11-05T08:01:23.241Z,95945.63
2022-11-05T08:03:51.099Z,95943.25
2022-11-05T08:06:18.842Z,95970.31
2022-11-05T08:08:46.581Z,95962.19
2022-11-05T08:11:14.730Z,95970.84
2022-11-05T08:13:44.003Z,95976.66
2022-11-05T08:16:13.092Z,95973.22
2022-11-05T08:18:40.799Z,95963.50
2022-11-05T08:21:09.482Z,95967.44
2022-11-05T08:23:38.719Z,95976.13
2022-11-05T08:26:06.841Z,95957.19
2022-11-05T08:28:34.640Z,95971.91
2022-11-05T08:31:02.436Z,95979.78
2022-11-05T08:33:33.086Z,95960.59
2022-11-05T08:36:03.637Z,95975.03
2022-11-05T08:38:31.480Z,95980.84
2022-11-05T08:40:59.452Z,95986.63
2022-11-05T08:43:27.413Z,95970.03
2022-11-05T08:45:55.304Z,95983.97
2022-11-05T08:48:23.150Z,95968.47
2022-11-05T08:50:52.336Z,95969.25
2022-11-05T08:53:20.246Z,95971.59
2022-11-05T08:55:50.018Z,95976.06
2022-11-05T08:58:20.102Z,95976.34
2022-11-05T09:00:50.331Z,95982.66
2022-11-05T09:03:19.129Z,95977.69
2022-11-05T09:05:47.516Z,95983.72
2022-11-05T09:08:18.870Z,95981.09
2022-11-05T09:10:47.557Z,95978.22
2022-11-05T09:13:19.499Z,95982.69
2022-11-05T09:15:48.707Z,95991.09
2022-11-05T09:18:17.094Z,95989.50
2022-11-05T09:20:45.266Z,95989.25
2022-11-05T09:23:15.140Z,95981.59
2022-11-05T09:25:44.862Z,95988.69
2022-11-05T09:28:16.875Z,95993.44
2022-11-05T09:30:46.739Z,95999.75
2022-11-05T09:33:15.283Z,95996.84
2022-11-05T09:35:43.553Z,95996.31
2022-11-05T09:38:11.884Z,95994.75
2022-11-05T09:40:47.395Z,95975.56
2022-11-05T09:43:19.826Z,96004.22
2022-11-05T09:45:50.303Z,95998.44
2022-11-05T09:48:21.261Z,96005.53
2022-11-05T09:50:50.087Z,96010.53
2022-11-05T09:53:20.211Z,96010.28
2022-11-05T09:55:50.881Z,96000.28
2022-11-05T09:58:28.517Z,96016.84
2022-11-05T10:00:58.172Z,96020.50
2022-11-05T10:03:30.416Z,96018.16
2022-11-05T10:06:06.437Z,96017.63
2022-11-05T10:08:39.205Z,96020.78
2022-11-05T10:11:12.776Z,96024.19
2022-11-05T10:13:45.506Z,96010.28
2022-11-05T10:16:22.889Z,96012.63
2022-11-05T10:18:55.247Z,96030.50
2022-11-05T10:21:44.158Z,96021.81
2022-11-05T10:24:15.586Z,96032.06
2022-11-05T10:26:48.979Z,96026.75
2022-11-05T10:29:23.541Z,96011.78
2022-11-05T10:31:54.009Z,96032.00
2022-11-05T10:34:24.834Z,96036.44
2022-11-05T10:36:54.224Z,96021.84
2022-11-05T10:39:23.385Z,96033.72
2022-11-05T10:42:27.489Z,96041.00
2022-11-05T10:45:03.024Z,96044.75
2022-11-05T10:47:45.886Z,96033.69
2022-11-05T10:50:17.487Z,96030.44
2022-11-05T10:52:57.957Z,96033.00
2022-11-05T10:55:29.067Z,96055.81
2022-11-05T10:58:09.822Z,96029.31
2022-11-05T11:00:38.161Z,96047.75
2022-11-05T11:03:27.114Z,96054.09
2022-11-05T11:06:01.382Z,96058.59
2022-11-05T11:08:30.083Z,96057.31
2022-11-05T11:11:00.434Z,96053.16
2022-11-05T11:13:47.429Z,96044.81
2022-11-05T11:16:17.391Z,96055.84
2022-11-05T11:18:45.212Z,96050.34
2022-11-05T11:21:16.693Z,96055.13
2022-11-05T11:23:54.255Z,96045.69
2022-11-05T11:26:22.839Z,96061.69
2022-11-05T11:28:57.172Z,96038.56
2022-11-05T11:31:27.040Z,96063.53
2022-11-05T11:33:59.857Z,96057.28
2022-11-05T11:36:33.767Z,96073.59
2022-11-05T11:39:04.301Z,96072.28
2022-11-05T11:41:35.020Z,96081.75
2022-11-05T11:44:08.819Z,96081.50
2022-11-05T11:46:37.132Z,96079.94
2022-11-05T11:49:07.597Z,96077.81
2022-11-05T11:51:40.498Z,96070.19
2022-11-05T11:54:20.904Z,96078.13
2022-11-05T11:56:49.826Z,96074.69
2022-11-05T11:59:46.659Z,96073.63
2022-11-05T12:03:01.862Z,96077.59
2022-11-05T12:05:43.485Z,96083.88
2022-11-05T12:08:42.883Z,96077.06
2022-11-05T12:11:19.248Z,96079.19
2022-11-05T12:14:00.361Z,96078.91
2022-11-05T12:16:58.716Z,96074.97
2022-11-05T12:19:43.069Z,96077.06
2022-11-05T12:22:18.977Z,96074.44
2022-11-05T12:25:12.160Z,96087.06
2022-11-05T12:27:58.205Z,96078.38
2022-11-05T12:30:48.024Z,96082.59
2022-11-05T12:33:26.244Z,96075.75
2022-11-05T12:36:07.508Z,96070.75
2022-11-05T12:38:55.531Z,96086.00
2022-11-05T12:41:28.445Z,96084.41
2022-11-05T12:44:15.403Z,96078.88
2022-11-05T12:46:53.544Z,96074.97
2022-11-05T12:49:39.704Z,96089.41
2022-11-05T12:52:27.021Z,96085.47
2022-11-05T12:55:04.447Z,96094.69
2022-11-05T12:57:39.843Z,96090.47
2022-11-05T13:00:15.510Z,96093.13
2022-11-05T13:02:53.588Z,96096.81
2022-11-05T13:05:30.880Z,96096.28
2022-11-05T13:08:04.247Z,96114.16
2022-11-05T13:10:37.890Z,96082.59
2022-11-05T13:13:12.786Z,96106.03
2022-11-05T13:15:48.804Z,96093.38
2022-11-05T13:18:21.877Z,96097.84
2022-11-05T13:20:54.405Z,96104.44
2022-11-05T13:23:30.607Z,96102.59
2022-11-05T13:26:04.056Z,96097.59
2022-11-05T13:28:39.848Z,96088.13
2022-11-05T13:31:13.533Z,96095.75
2022-11-05T13:33:44.938Z,96103.09
2022-11-05T13:36:35.162Z,96111.81
2022-11-05T13:39:11.278Z,96101.03
2022-11-05T13:41:52.223Z,96116.03
2022-11-05T13:44:45.007Z,96117.06
2022-11-05T13:47:44.166Z,96112.84
2022-11-05T13:50:32.166Z,96117.06
2022-11-05T13:53:18.349Z,96119.69
2022-11-05T13:55:58.084Z,96125.50
2022-11-05T13:58:56.438Z,96116.28
2022-11-05T14:01:43.025Z,96130.50
2022-11-05T14:04:17.960Z,96131.53
2022-11-05T14:06:46.001Z,96133.38
2022-11-05T14:09:21.249Z,96126.28
2022-11-05T14:11:55.143Z,96139.44
2022-11-05T14:14:25.027Z,96117.84
2022-11-05T14:17:31.973Z,96131.25
2022-11-05T14:20:26.343Z,96135.72
2022-11-05T14:22:54.466Z,96136.78
2022-11-05T14:25:55.781Z,96136.53
2022-11-05T14:28:47.476Z,96141.28
2022-11-05T14:31:54.641Z,96139.69
2022-11-05T14:34:43.512Z,96133.63
2022-11-05T14:37:31.746Z,96138.63
2022-11-05T14:40:19.044Z,96147.31
2022-11-05T14:42:52.620Z,96158.63
2022-11-05T14:45:28.146Z,96139.94
2022-11-05T14:47:58.417Z,96149.38
2022-11-05T14:50:35.796Z,96152.81
2022-11-05T14:53:12.359Z,96151.25
2022-11-05T14:55:44.648Z,96144.94
2022-11-05T14:58:35.342Z,96154.91
2022-11-05T15:01:05.090Z,96158.06
2022-11-05T15:03:46.696Z,96148.59
2022-11-05T15:06:28.777Z,96162.81
2022-11-05T15:09:21.924Z,96155.47
2022-11-05T15:12:15.945Z,96160.19
2022-11-05T15:14:58.295Z,96173.34
2022-11-05T15:17:29.922Z,96159.63
2022-11-05T15:20:07.838Z,96160.69
2022-11-05T15:22:40.990Z,96163.84
2022-11-05T15:25:17.979Z,96162.25
2022-11-05T15:28:03.902Z,96168.84
2022-11-05T15:30:34.023Z,96166.50
2022-11-05T15:33:19.427Z,96168.06
2022-11-05T15:35:47.244Z,96172.28
2022-11-05T15:38:30.494Z,96172.25
2022-11-05T15:41:00.238Z,96180.66
2022-11-05T15:43:28.165Z,96178.03
2022-11-05T15:46:16.595Z,96173.34
2022-11-05T15:48:47.237Z,96160.69
2022-11-05T15:51:15.046Z,96189.88
2022-11-05T15:56:50.900Z,96184.88
2022-11-05T15:59:21.437Z,96171.94
2022-11-05T16:01:53.739Z,96165.38
2022-11-05T16:04:24.226Z,96189.28
2022-11-05T16:06:54.801Z,96193.00
2022-11-05T16:09:24.325Z,96202.19
2022-11-05T16:12:12.208Z,96197.69
2022-11-05T16:14:40.124Z,96200.84
2022-11-05T16:17:19.692Z,96207.16
2022-11-05T16:19:48.074Z,96193.16
2022-11-05T16:22:16.205Z,96213.41
2022-11-05T16:24:44.453Z,96219.72
2022-11-05T16:27:19.704Z,96216.03
2022-11-05T16:29:51.266Z,96193.91
2022-11-05T16:32:29.852Z,96214.22
2022-11-05T16:35:00.862Z,96216.63
2022-11-05T16:37:30.810Z,96200.78
2022-11-05T16:39:58.562Z,96215.81
2022-11-05T16:42:40.851Z,96242.66
2022-11-05T16:45:12.659Z,96236.34
2022-11-05T16:47:42.656Z,96245.00
2022-11-05T16:50:16.717Z,96230.28
2022-11-05T16:52:46.126Z,96245.22
2022-11-05T16:55:14.563Z,96233.03
2022-11-05T16:57:43.903Z,96245.16
2022-11-05T17:00:15.137Z,96263.59
2022-11-05T17:02:47.276Z,96260.41
2022-11-05T17:05:22.568Z,96260.97
2022-11-05T17:07:50.821Z,96249.09
2022-11-05T17:10:18.735Z,96251.66
2022-11-05T17:12:47.231Z,96265.16
2022-11-05T17:15:20.355Z,96276.47
2022-11-05T17:17:49.802Z,96266.66
2022-11-05T17:20:27.292Z,96275.31
2022-11-05T17:22:55.674Z,96264.56
2022-11-05T17:25:23.666Z,96269.78
2022-11-05T17:27:51.725Z,96270.84
2022-11-05T17:30:20.026Z,96291.13
2022-11-05T17:32:49.468Z,96264.75
2022-11-05T17:35:17.654Z,96286.53
2022-11-05T17:37:45.600Z,96292.00
2022-11-05T17:40:17.017Z,96294.72
2022-11-05T17:42:46.706Z,96319.16
2022-11-05T17:45:15.432Z,96298.91
2022-11-05T17:47:43.322Z,96292.59
2022-11-05T17:50:15.556Z,96304.94
2022-11-05T17:52:43.693Z,96301.16
2022-11-05T17:55:17.295Z,96307.06
2022-11-05T17:57:46.959Z,96319.13
2022-11-05T18:00:17.193Z,96303.25
2022-11-05T18:02:46.155Z,96303.84
2022-11-05T18:05:16.200Z,96322.78
2022-11-05T18:07:44.453Z,96321.66
2022-11-05T18:10:13.303Z,96323.75
2022-11-05T18:12:41.661Z,96321.41
2022-11-05T18:15:10.695Z,96301.06
2022-11-05T18:17:39.120Z,96326.44
2022-11-05T18:20:12.971Z,96330.59
2022-11-05T18:22:47.398Z,96321.09
2022-11-05T18:25:15.197Z,96321.88
2022-11-05T18:27:43.145Z,96340.56
2022-11-05T18:30:14.054Z,96317.59
2022-11-05T18:32:42.607Z,96339.19
2022-11-05T18:35:10.823Z,96320.25
2022-11-05T18:37:39.600Z,96338.44
2022-11-05T18:40:09.714Z,96321.59
2022-11-05T18:42:37.519Z,96319.38
2022-11-05T18:45:06.135Z,96338.41
2022-11-05T18:47:34.038Z,96337.16
2022-11-05T18:50:01.699Z,96334.53
2022-11-05T18:52:31.518Z,96331.94
2022-11-05T18:54:59.634Z,96338.47
2022-11-05T18:57:29.529Z,96336.84
2022-11-05T18:59:57.251Z,96340.25
2022-11-05T19:02:25.030Z,96337.63
2022-11-05T19:05:26.678Z,96321.81
2022-11-05T19:07:41.067Z,96325.50
2022-11-05T19:10:09.473Z,96351.81
2022-11-05T19:12:39.225Z,96313.94
2022-11-05T19:15:08.094Z,96335.97
2022-11-05T19:17:36.176Z,96334.16
2022-11-05T19:20:05.023Z,96329.91
2022-11-05T19:22:33.118Z,96341.47
2022-11-05T19:25:00.863Z,96365.94
2022-11-05T19:27:28.568Z,96347.34
2022-11-05T19:29:57.630Z,96265.94
2022-11-05T19:32:25.345Z,96340.66
2022-11-05T19:34:53.082Z,96348.31
2022-11-05T19:37:20.810Z,96343.50
2022-11-05T19:39:48.477Z,96299.56
2022-11-05T19:42:16.233Z,96312.19
2022-11-05T19:44:44.163Z,96347.91
2022-11-05T19:47:13.203Z,96359.53
2022-11-05T19:49:40.911Z,96298.53
2022-11-05T19:52:08.650Z,96355.78
2022-11-05T19:54:36.537Z,96355.47
2022-11-05T19:57:06.292Z,96300.81
2022-11-05T19:59:34.007Z,96271.94
2022-11-05T20:02:01.891Z,96364.28
2022-11-05T20:04:31.120Z,96366.47
2022-11-05T20:06:58.863Z,96370.69
2022-11-05T20:09:28.605Z,96364.31
2022-11-05T20:11:57.113Z,96352.22
2022-11-05T20:14:26.215Z,96362.78
2022-11-05T20:16:54.566Z,96356.38
2022-11-05T20:19:23.740Z,96356.38
2022-11-05T20:21:53.191Z,96355.28
2022-11-05T20:24:25.216Z,96356.56
2022-11-05T20:26:54.129Z,96356.50
2022-11-05T20:29:35.570Z,96362.97
2022-11-05T20:32:04.366Z,96365.44
2022-11-05T20:34:33.245Z,96365.19
2022-11-05T20:37:02.619Z,96374.75
2022-11-05T20:39:30.485Z,96350.97
2022-11-05T20:42:00.413Z,96349.06
2022-11-05T20:44:28.159Z,96371.97
2022-11-05T20:46:56.240Z,96367.56
2022-11-05T20:49:25.667Z,96375.09
2022-11-05T20:51:55.155Z,96376.69
2022-11-05T20:54:24.624Z,96332.59
2022-11-05T20:56:52.517Z,96284.50
2022-11-05T20:59:20.624Z,96383.66
2022-11-05T21:01:51.388Z,96385.84
2022-11-05T21:04:19.234Z,96386.78
2022-11-05T21:06:46.935Z,96347.09
2022-11-05T21:09:14.655Z,96369.00
2022-11-05T21:12:01.330Z,96383.59
2022-11-05T21:14:29.026Z,96365.66
2022-11-05T21:16:56.823Z,96384.47
2022-11-05T21:19:24.885Z,96334.81
2022-11-05T21:21:52.649Z,96383.66
2022-11-05T21:24:20.356Z,96380.50
2022-11-05T21:26:50.308Z,96317.84
2022-11-05T21:29:18.814Z,96369.47
2022-11-05T21:31:47.135Z,96394.56
2022-11-05T21:34:14.861Z,96377.66
2022-11-05T21:36:42.602Z,96280.91
2022-11-05T21:39:13.504Z,96327.78
2022-11-05T21:41:42.585Z,96367.56
2022-11-05T21:44:11.746Z,96374.22
2022-11-05T21:46:39.744Z,96376.19
2022-11-05T21:49:07.431Z,96386.09
2022-11-05T21:51:52.499Z,96380.88
2022-11-05T21:54:37.635Z,96382.59
2022-11-05T21:57:23.286Z,96375.56
2022-11-05T21:59:57.434Z,96374.56
2022-11-05T22:02:28.360Z,96373.78
2022-11-05T22:04:59.829Z,96359.50
2022-11-05T22:07:29.678Z,96351.38
2022-11-05T22:09:57.436Z,96373.69
2022-11-05T22:12:25.815Z,96388.19
2022-11-05T22:14:55.661Z,96374.31
2022-11-05T22:17:24.823Z,96373.97
2022-11-05T22:19:52.819Z,96362.94
2022-11-05T22:22:20.537Z,96342.69
2022-11-05T22:24:48.261Z,96376.84
2022-11-05T22:27:18.823Z,96367.69
2022-11-05T22:29:46.746Z,96383.59
2022-11-05T22:32:16.817Z,96389.03
2022-11-05T22:34:44.577Z,96382.22
2022-11-05T22:37:13.526Z,96387.44
2022-11-05T22:39:41.467Z,96377.13
2022-11-05T22:42:09.261Z,96380.59
2022-11-05T22:44:38.373Z,96379.88
2022-11-05T22:47:06.824Z,96369.00
2022-11-05T22:49:36.214Z,96371.38
2022-11-05T22:52:04.104Z,96365.25
2022-11-05T22:54:37.919Z,96381.06
2022-11-05T22:57:06.960Z,96382.75
2022-11-05T22:59:34.752Z,96410.59
2022-11-05T23:02:08.252Z,96381.63
2022-11-05T23:04:39.760Z,96380.59
2022-11-05T23:07:27.884Z,96373.34
2022-11-05T23:10:12.937Z,96372.66
2022-11-05T23:12:43.077Z,96364.94
2022-11-05T23:15:31.370Z,96362.72
2022-11-05T23:18:16.735Z,96374.38
2022-11-05T23:21:03.292Z,96340.91
2022-11-05T23:23:48.401Z,96372.78
2022-11-05T23:26:33.726Z,96362.03
2022-11-05T23:29:01.448Z,96368.84
2022-11-05T23:31:46.705Z,96340.69
2022-11-05T23:34:14.419Z,96367.25
2022-11-05T23:37:00.814Z,96352.00
2022-11-05T23:39:28.507Z,96355.09
2022-11-05T23:42:13.779Z,96372.72
2022-11-05T23:44:58.949Z,96364.97
2022-11-05T23:47:44.079Z,96347.59
2022-11-05T23:50:12.148Z,96371.09
2022-11-05T23:52:41.265Z,96298.69
2022-11-05T23:55:30.225Z,96368.84
2022-11-05T23:57:58.057Z,96371.56
